createdAt,value
2023-04-22T00:00:33.495Z,9.60
2023-04-22T00:10:59.967Z,11.20
2023-04-22T00:21:25.432Z,9.50
2023-04-22T00:31:51.672Z,8.10
2023-04-22T00:42:18.455Z,9.80
2023-04-22T00:52:44.505Z,8.50
2023-04-22T01:03:11.355Z,8.70
2023-04-22T01:13:38.544Z,9.00
2023-04-22T01:24:04.802Z,8.30
2023-04-22T01:34:31.530Z,8.30
2023-04-22T01:44:57.335Z,8.10
2023-04-22T01:55:23.630Z,9.00
2023-04-22T02:05:49.306Z,9.10
2023-04-22T02:16:14.926Z,10.00
2023-04-22T02:26:41.591Z,8.90
2023-04-22T02:37:16.124Z,10.20
2023-04-22T02:47:42.159Z,8.60
2023-04-22T02:58:09.044Z,8.60
2023-04-22T03:08:34.885Z,9.30
2023-04-22T03:19:02.363Z,10.60
2023-04-22T03:29:27.960Z,12.50
2023-04-22T03:39:53.429Z,7.90
2023-04-22T03:50:19.100Z,16.60
2023-04-22T04:00:44.589Z,11.10
2023-04-22T04:11:11.880Z,10.40
2023-04-22T04:21:38.053Z,12.20
2023-04-22T04:32:04.797Z,19.70
2023-04-22T04:42:33.698Z,15.40
2023-04-22T04:52:59.183Z,13.80
2023-04-22T05:03:25.298Z,13.00
2023-04-22T05:13:51.079Z,17.20
2023-04-22T05:24:16.686Z,17.00
2023-04-22T05:34:42.512Z,24.40
2023-04-22T05:45:10.393Z,20.80
2023-04-22T05:55:36.343Z,26.90
2023-04-22T06:06:02.076Z,24.40
2023-04-22T06:16:27.798Z,25.50
2023-04-22T06:26:53.670Z,25.10
2023-04-22T06:37:19.484Z,23.90
2023-04-22T06:47:45.581Z,22.40
2023-04-22T06:58:11.295Z,20.20
2023-04-22T07:08:37.872Z,19.00
2023-04-22T07:19:04.907Z,18.60
2023-04-22T07:29:31.385Z,15.80
2023-04-22T07:39:57.663Z,14.10
2023-04-22T07:50:23.656Z,13.90
2023-04-22T08:00:49.671Z,11.50
2023-04-22T08:11:15.847Z,9.00
2023-04-22T08:21:41.283Z,9.20
2023-04-22T08:32:07.747Z,8.50
2023-04-22T08:42:34.318Z,7.80
2023-04-22T08:53:00.453Z,9.30
2023-04-22T09:03:27.079Z,7.40
2023-04-22T09:13:54.579Z,7.20
2023-04-22T09:24:21.972Z,6.90
2023-04-22T09:34:55.534Z,4.40
2023-04-22T09:45:30.910Z,5.70
2023-04-22T09:55:57.025Z,4.70
2023-04-22T10:06:23.795Z,5.50
2023-04-22T10:16:51.689Z,4.50
2023-04-22T10:27:23.534Z,6.80
2023-04-22T10:37:49.748Z,4.00
2023-04-22T10:48:15.918Z,4.00
2023-04-22T10:58:42.075Z,5.40
2023-04-22T11:09:13.724Z,3.50
2023-04-22T11:19:39.792Z,2.90
2023-04-22T11:30:08.773Z,2.80
2023-04-22T11:40:38.569Z,2.70
2023-04-22T11:51:13.088Z,2.80
2023-04-22T12:01:38.827Z,3.00
2023-04-22T12:12:06.238Z,2.90
2023-04-22T12:22:33.681Z,3.40
2023-04-22T12:43:24.176Z,4.00
2023-04-22T12:53:49.703Z,3.60
2023-04-22T13:04:15.854Z,4.30
2023-04-22T13:14:42.290Z,3.10
2023-04-22T13:25:09.958Z,3.40
2023-04-22T13:35:36.591Z,3.50
2023-04-22T13:46:02.666Z,4.30
2023-04-22T13:56:28.897Z,3.60
2023-04-22T14:06:54.693Z,4.00
2023-04-22T14:17:22.255Z,4.10
2023-04-22T14:27:48.074Z,4.90
2023-04-22T14:38:14.559Z,4.10
2023-04-22T14:48:40.507Z,4.60
2023-04-22T14:59:06.749Z,4.00
2023-04-22T15:09:33.028Z,5.40
2023-04-22T15:19:59.081Z,5.20
2023-04-22T15:30:25.484Z,5.60
2023-04-22T15:40:51.019Z,5.20
2023-04-22T15:51:17.581Z,4.70
2023-04-22T16:01:45.796Z,4.70
2023-04-22T16:12:11.960Z,5.30
2023-04-22T16:22:38.329Z,5.00
2023-04-22T16:33:04.210Z,5.20
2023-04-22T16:43:30.100Z,5.30
2023-04-22T16:53:56.164Z,4.60
2023-04-22T17:04:25.056Z,5.20
2023-04-22T17:14:51.116Z,5.60
2023-04-22T17:25:16.594Z,5.40
2023-04-22T17:35:42.682Z,5.50
2023-04-22T17:46:09.502Z,5.00
2023-04-22T17:56:35.703Z,5.20
2023-04-22T18:07:01.668Z,8.50
2023-04-22T18:17:27.423Z,6.60
2023-04-22T18:27:55.429Z,6.60
2023-04-22T18:38:20.936Z,5.60
2023-04-22T18:48:46.892Z,5.10
2023-04-22T18:59:12.997Z,6.30
2023-04-22T19:09:38.871Z,6.50
2023-04-22T19:20:06.051Z,6.00
2023-04-22T19:30:31.759Z,6.20
2023-04-22T19:40:58.075Z,5.30
2023-04-22T19:51:24.213Z,5.90
2023-04-22T20:01:51.234Z,9.70
2023-04-22T20:12:17.034Z,9.10
2023-04-22T20:22:45.792Z,7.50
2023-04-22T20:33:16.657Z,11.30
2023-04-22T20:43:44.116Z,12.10
2023-04-22T20:54:21.640Z,14.40
2023-04-22T21:04:54.052Z,17.00
2023-04-22T21:15:21.413Z,11.70
2023-04-22T21:25:49.655Z,17.90
2023-04-22T21:36:15.636Z,21.60
2023-04-22T21:46:41.242Z,25.80
2023-04-22T21:57:07.040Z,20.20
2023-04-22T22:07:34.553Z,17.70
2023-04-22T22:18:00.258Z,15.50
2023-04-22T22:28:25.717Z,20.20
2023-04-22T22:38:51.120Z,17.50
2023-04-22T22:49:17.203Z,19.00
2023-04-22T22:59:44.628Z,16.20
2023-04-22T23:10:12.026Z,14.90
2023-04-22T23:20:38.423Z,18.60
2023-04-22T23:31:07.881Z,16.40
2023-04-22T23:41:33.692Z,14.40
2023-04-22T23:51:59.928Z,15.60
